sensor_id;sensor_type;location;lat;lon;timestamp;P1;durP1;ratioP1;P2;durP2;ratioP2
26702;SDS011;14316;51.074;3.704;2022-08-25T00:01:31;11.10;;;8.73;;
26702;SDS011;14316;51.074;3.704;2022-08-25T00:04:00;9.15;;;8.35;;
26702;SDS011;14316;51.074;3.704;2022-08-25T00:06:29;8.68;;;7.97;;
26702;SDS011;14316;51.074;3.704;2022-08-25T00:08:55;10.93;;;8.68;;
26702;SDS011;14316;51.074;3.704;2022-08-25T00:11:23;9.93;;;8.93;;
26702;SDS011;14316;51.074;3.704;2022-08-25T00:13:52;11.88;;;9.20;;
26702;SDS011;14316;51.074;3.704;2022-08-25T00:16:20;9.73;;;8.82;;
26702;SDS011;14316;51.074;3.704;2022-08-25T00:18:49;10.45;;;9.45;;
26702;SDS011;14316;51.074;3.704;2022-08-25T00:21:17;10.80;;;8.98;;
26702;SDS011;14316;51.074;3.704;2022-08-25T00:23:44;9.85;;;8.95;;
26702;SDS011;14316;51.074;3.704;2022-08-25T00:26:11;10.50;;;9.40;;
26702;SDS011;14316;51.074;3.704;2022-08-25T00:28:37;10.95;;;9.85;;
26702;SDS011;14316;51.074;3.704;2022-08-25T00:31:04;11.32;;;10.25;;
26702;SDS011;14316;51.074;3.704;2022-08-25T00:33:31;12.73;;;10.40;;
26702;SDS011;14316;51.074;3.704;2022-08-25T00:35:57;10.52;;;9.50;;
26702;SDS011;14316;51.074;3.704;2022-08-25T00:38:24;11.48;;;10.07;;
26702;SDS011;14316;51.074;3.704;2022-08-25T00:40:50;12.20;;;9.88;;
26702;SDS011;14316;51.074;3.704;2022-08-25T00:43:41;11.32;;;10.23;;
26702;SDS011;14316;51.074;3.704;2022-08-25T00:46:21;11.23;;;10.13;;
26702;SDS011;14316;51.074;3.704;2022-08-25T00:49:01;11.52;;;10.60;;
26702;SDS011;14316;51.074;3.704;2022-08-25T00:54:03;11.55;;;10.52;;
26702;SDS011;14316;51.074;3.704;2022-08-25T00:56:31;11.45;;;10.40;;
26702;SDS011;14316;51.074;3.704;2022-08-25T00:58:58;12.20;;;11.02;;
26702;SDS011;14316;51.074;3.704;2022-08-25T01:01:25;12.65;;;11.45;;
26702;SDS011;14316;51.074;3.704;2022-08-25T01:03:51;12.93;;;11.68;;
26702;SDS011;14316;51.074;3.704;2022-08-25T01:06:17;12.48;;;11.48;;
26702;SDS011;14316;51.074;3.704;2022-08-25T01:08:44;12.73;;;11.63;;
26702;SDS011;14316;51.074;3.704;2022-08-25T01:11:10;12.55;;;11.40;;
26702;SDS011;14316;51.074;3.704;2022-08-25T01:13:41;12.85;;;11.55;;
26702;SDS011;14316;51.074;3.704;2022-08-25T01:16:10;13.07;;;11.95;;
26702;SDS011;14316;51.074;3.704;2022-08-25T01:18:51;17.40;;;12.02;;
26702;SDS011;14316;51.074;3.704;2022-08-25T01:21:22;12.50;;;11.40;;
26702;SDS011;14316;51.074;3.704;2022-08-25T01:23:49;13.80;;;12.40;;
26702;SDS011;14316;51.074;3.704;2022-08-25T01:26:17;13.75;;;12.57;;
26702;SDS011;14316;51.074;3.704;2022-08-25T01:28:47;13.05;;;11.80;;
26702;SDS011;14316;51.074;3.704;2022-08-25T01:31:53;14.10;;;12.77;;
26702;SDS011;14316;51.074;3.704;2022-08-25T01:34:22;13.80;;;12.60;;
26702;SDS011;14316;51.074;3.704;2022-08-25T01:36:52;13.85;;;12.57;;
26702;SDS011;14316;51.074;3.704;2022-08-25T01:39:18;13.38;;;12.27;;
26702;SDS011;14316;51.074;3.704;2022-08-25T01:44:12;14.48;;;13.18;;
26702;SDS011;14316;51.074;3.704;2022-08-25T01:46:38;14.52;;;13.25;;
26702;SDS011;14316;51.074;3.704;2022-08-25T01:49:04;14.75;;;13.23;;
26702;SDS011;14316;51.074;3.704;2022-08-25T01:51:37;13.68;;;12.45;;
26702;SDS011;14316;51.074;3.704;2022-08-25T01:54:07;15.02;;;13.68;;
26702;SDS011;14316;51.074;3.704;2022-08-25T01:56:33;14.90;;;13.50;;
26702;SDS011;14316;51.074;3.704;2022-08-25T01:58:59;15.32;;;13.95;;
26702;SDS011;14316;51.074;3.704;2022-08-25T02:01:24;16.25;;;14.73;;
26702;SDS011;14316;51.074;3.704;2022-08-25T02:03:51;16.27;;;14.88;;
26702;SDS011;14316;51.074;3.704;2022-08-25T02:06:20;16.20;;;14.80;;
26702;SDS011;14316;51.074;3.704;2022-08-25T02:09:00;17.23;;;15.63;;
26702;SDS011;14316;51.074;3.704;2022-08-25T02:11:29;17.17;;;15.60;;
26702;SDS011;14316;51.074;3.704;2022-08-25T02:13:56;18.25;;;16.63;;
26702;SDS011;14316;51.074;3.704;2022-08-25T02:16:24;18.60;;;16.92;;
26702;SDS011;14316;51.074;3.704;2022-08-25T02:18:53;18.15;;;16.48;;
26702;SDS011;14316;51.074;3.704;2022-08-25T02:21:20;18.00;;;16.60;;
26702;SDS011;14316;51.074;3.704;2022-08-25T02:23:45;17.35;;;15.70;;
26702;SDS011;14316;51.074;3.704;2022-08-25T02:26:11;16.33;;;14.93;;
26702;SDS011;14316;51.074;3.704;2022-08-25T02:28:40;17.70;;;16.20;;
26702;SDS011;14316;51.074;3.704;2022-08-25T02:31:07;16.88;;;15.48;;
26702;SDS011;14316;51.074;3.704;2022-08-25T02:33:34;17.55;;;15.98;;
26702;SDS011;14316;51.074;3.704;2022-08-25T02:35:59;17.52;;;15.98;;
26702;SDS011;14316;51.074;3.704;2022-08-25T02:38:26;17.90;;;16.30;;
26702;SDS011;14316;51.074;3.704;2022-08-25T02:40:53;17.92;;;16.35;;
26702;SDS011;14316;51.074;3.704;2022-08-25T02:43:24;18.35;;;16.80;;
26702;SDS011;14316;51.074;3.704;2022-08-25T02:45:52;19.30;;;17.60;;
26702;SDS011;14316;51.074;3.704;2022-08-25T02:48:19;96.63;;;22.85;;
26702;SDS011;14316;51.074;3.704;2022-08-25T02:50:49;18.98;;;17.17;;
26702;SDS011;14316;51.074;3.704;2022-08-25T02:53:17;19.73;;;18.03;;
26702;SDS011;14316;51.074;3.704;2022-08-25T02:55:44;20.92;;;19.02;;
26702;SDS011;14316;51.074;3.704;2022-08-25T02:58:10;21.85;;;19.98;;
26702;SDS011;14316;51.074;3.704;2022-08-25T03:00:36;21.65;;;19.73;;
26702;SDS011;14316;51.074;3.704;2022-08-25T03:03:03;21.95;;;19.95;;
26702;SDS011;14316;51.074;3.704;2022-08-25T03:05:29;22.17;;;20.08;;
26702;SDS011;14316;51.074;3.704;2022-08-25T03:07:54;21.92;;;20.00;;
26702;SDS011;14316;51.074;3.704;2022-08-25T03:10:20;22.95;;;20.88;;
26702;SDS011;14316;51.074;3.704;2022-08-25T03:12:46;22.65;;;20.65;;
26702;SDS011;14316;51.074;3.704;2022-08-25T03:15:13;23.85;;;21.60;;
26702;SDS011;14316;51.074;3.704;2022-08-25T03:17:43;23.73;;;21.67;;
26702;SDS011;14316;51.074;3.704;2022-08-25T03:20:10;24.88;;;22.75;;
26702;SDS011;14316;51.074;3.704;2022-08-25T03:22:36;23.73;;;21.73;;
26702;SDS011;14316;51.074;3.704;2022-08-25T03:25:03;22.67;;;20.88;;
26702;SDS011;14316;51.074;3.704;2022-08-25T03:27:47;24.65;;;22.38;;
26702;SDS011;14316;51.074;3.704;2022-08-25T03:30:13;25.25;;;23.08;;
26702;SDS011;14316;51.074;3.704;2022-08-25T03:32:40;26.83;;;24.55;;
26702;SDS011;14316;51.074;3.704;2022-08-25T03:35:07;26.02;;;23.88;;
26702;SDS011;14316;51.074;3.704;2022-08-25T03:37:32;28.63;;;25.98;;
26702;SDS011;14316;51.074;3.704;2022-08-25T03:39:58;28.40;;;25.85;;
26702;SDS011;14316;51.074;3.704;2022-08-25T03:42:25;27.70;;;25.30;;
26702;SDS011;14316;51.074;3.704;2022-08-25T03:44:51;27.45;;;24.83;;
26702;SDS011;14316;51.074;3.704;2022-08-25T03:47:17;27.75;;;25.25;;
26702;SDS011;14316;51.074;3.704;2022-08-25T03:49:42;28.10;;;25.60;;
26702;SDS011;14316;51.074;3.704;2022-08-25T03:52:08;30.27;;;27.25;;
26702;SDS011;14316;51.074;3.704;2022-08-25T03:54:34;29.20;;;26.70;;
26702;SDS011;14316;51.074;3.704;2022-08-25T03:57:00;28.83;;;26.30;;
26702;SDS011;14316;51.074;3.704;2022-08-25T03:59:25;30.50;;;27.90;;
26702;SDS011;14316;51.074;3.704;2022-08-25T04:01:51;29.20;;;26.70;;
26702;SDS011;14316;51.074;3.704;2022-08-25T04:04:17;28.30;;;25.85;;
26702;SDS011;14316;51.074;3.704;2022-08-25T04:06:44;28.77;;;26.17;;
26702;SDS011;14316;51.074;3.704;2022-08-25T04:09:11;30.05;;;27.42;;
26702;SDS011;14316;51.074;3.704;2022-08-25T04:11:37;29.30;;;26.80;;
26702;SDS011;14316;51.074;3.704;2022-08-25T04:14:03;29.45;;;26.55;;
26702;SDS011;14316;51.074;3.704;2022-08-25T04:16:31;29.50;;;27.05;;
26702;SDS011;14316;51.074;3.704;2022-08-25T04:18:59;28.55;;;25.90;;
26702;SDS011;14316;51.074;3.704;2022-08-25T04:21:27;29.90;;;26.88;;
26702;SDS011;14316;51.074;3.704;2022-08-25T04:23:54;29.38;;;26.77;;
26702;SDS011;14316;51.074;3.704;2022-08-25T04:26:26;29.80;;;27.20;;
26702;SDS011;14316;51.074;3.704;2022-08-25T04:28:56;29.33;;;26.77;;
26702;SDS011;14316;51.074;3.704;2022-08-25T04:31:24;30.67;;;27.70;;
26702;SDS011;14316;51.074;3.704;2022-08-25T04:33:51;29.75;;;27.08;;
26702;SDS011;14316;51.074;3.704;2022-08-25T04:36:17;30.58;;;27.70;;
26702;SDS011;14316;51.074;3.704;2022-08-25T04:38:45;29.10;;;26.45;;
26702;SDS011;14316;51.074;3.704;2022-08-25T04:41:12;30.65;;;27.77;;
26702;SDS011;14316;51.074;3.704;2022-08-25T04:43:39;30.50;;;27.88;;
26702;SDS011;14316;51.074;3.704;2022-08-25T04:46:09;30.40;;;27.73;;
26702;SDS011;14316;51.074;3.704;2022-08-25T04:48:39;30.20;;;27.45;;
26702;SDS011;14316;51.074;3.704;2022-08-25T04:51:06;31.30;;;28.35;;
26702;SDS011;14316;51.074;3.704;2022-08-25T04:53:34;30.55;;;27.95;;
26702;SDS011;14316;51.074;3.704;2022-08-25T04:56:04;30.25;;;27.55;;
26702;SDS011;14316;51.074;3.704;2022-08-25T04:58:31;29.50;;;26.73;;
26702;SDS011;14316;51.074;3.704;2022-08-25T05:01:03;30.30;;;27.60;;
26702;SDS011;14316;51.074;3.704;2022-08-25T05:03:29;29.08;;;26.52;;
26702;SDS011;14316;51.074;3.704;2022-08-25T05:05:56;27.40;;;24.83;;
26702;SDS011;14316;51.074;3.704;2022-08-25T05:08:21;27.42;;;24.83;;
26702;SDS011;14316;51.074;3.704;2022-08-25T05:10:48;29.50;;;26.83;;
26702;SDS011;14316;51.074;3.704;2022-08-25T05:13:15;29.88;;;27.05;;
26702;SDS011;14316;51.074;3.704;2022-08-25T05:15:41;28.95;;;26.35;;
26702;SDS011;14316;51.074;3.704;2022-08-25T05:18:19;29.33;;;26.70;;
26702;SDS011;14316;51.074;3.704;2022-08-25T05:20:47;28.83;;;26.13;;
26702;SDS011;14316;51.074;3.704;2022-08-25T05:23:14;28.00;;;25.67;;
26702;SDS011;14316;51.074;3.704;2022-08-25T05:25:39;27.20;;;24.80;;
26702;SDS011;14316;51.074;3.704;2022-08-25T05:28:06;28.95;;;26.45;;
26702;SDS011;14316;51.074;3.704;2022-08-25T05:30:32;27.80;;;25.40;;
26702;SDS011;14316;51.074;3.704;2022-08-25T05:32:58;28.02;;;25.58;;
26702;SDS011;14316;51.074;3.704;2022-08-25T05:35:24;28.00;;;25.38;;
26702;SDS011;14316;51.074;3.704;2022-08-25T05:37:49;26.63;;;24.05;;
26702;SDS011;14316;51.074;3.704;2022-08-25T05:40:15;25.83;;;23.55;;
26702;SDS011;14316;51.074;3.704;2022-08-25T05:42:41;26.90;;;24.55;;
26702;SDS011;14316;51.074;3.704;2022-08-25T05:45:07;24.92;;;22.52;;
26702;SDS011;14316;51.074;3.704;2022-08-25T05:47:34;24.88;;;22.75;;
26702;SDS011;14316;51.074;3.704;2022-08-25T05:50:00;25.95;;;23.52;;
26702;SDS011;14316;51.074;3.704;2022-08-25T05:52:26;26.00;;;23.33;;
26702;SDS011;14316;51.074;3.704;2022-08-25T05:54:52;26.67;;;24.08;;
26702;SDS011;14316;51.074;3.704;2022-08-25T05:57:18;26.80;;;24.15;;
26702;SDS011;14316;51.074;3.704;2022-08-25T05:59:44;26.10;;;23.55;;
26702;SDS011;14316;51.074;3.704;2022-08-25T06:02:10;26.45;;;23.73;;
26702;SDS011;14316;51.074;3.704;2022-08-25T06:04:54;25.77;;;23.35;;
26702;SDS011;14316;51.074;3.704;2022-08-25T06:07:21;26.27;;;23.60;;
26702;SDS011;14316;51.074;3.704;2022-08-25T06:09:46;25.25;;;22.80;;
26702;SDS011;14316;51.074;3.704;2022-08-25T06:12:13;25.10;;;22.42;;
26702;SDS011;14316;51.074;3.704;2022-08-25T06:14:40;24.40;;;22.08;;
26702;SDS011;14316;51.074;3.704;2022-08-25T06:17:06;23.60;;;21.15;;
26702;SDS011;14316;51.074;3.704;2022-08-25T06:19:32;22.70;;;20.63;;
26702;SDS011;14316;51.074;3.704;2022-08-25T06:21:58;22.00;;;19.85;;
26702;SDS011;14316;51.074;3.704;2022-08-25T06:24:25;23.10;;;21.00;;
26702;SDS011;14316;51.074;3.704;2022-08-25T06:26:52;21.50;;;19.27;;
26702;SDS011;14316;51.074;3.704;2022-08-25T06:29:18;20.63;;;18.75;;
26702;SDS011;14316;51.074;3.704;2022-08-25T06:31:45;19.92;;;18.10;;
26702;SDS011;14316;51.074;3.704;2022-08-25T06:34:11;20.80;;;18.70;;
26702;SDS011;14316;51.074;3.704;2022-08-25T06:36:38;19.48;;;17.50;;
26702;SDS011;14316;51.074;3.704;2022-08-25T06:39:04;19.02;;;16.95;;
26702;SDS011;14316;51.074;3.704;2022-08-25T06:41:30;18.90;;;15.32;;
26702;SDS011;14316;51.074;3.704;2022-08-25T06:43:57;23.35;;;16.27;;
26702;SDS011;14316;51.074;3.704;2022-08-25T06:46:24;18.88;;;14.75;;
26702;SDS011;14316;51.074;3.704;2022-08-25T06:48:51;18.08;;;14.32;;
26702;SDS011;14316;51.074;3.704;2022-08-25T06:51:20;14.02;;;12.70;;
26702;SDS011;14316;51.074;3.704;2022-08-25T06:53:47;12.80;;;11.60;;
26702;SDS011;14316;51.074;3.704;2022-08-25T06:56:14;13.68;;;11.45;;
26702;SDS011;14316;51.074;3.704;2022-08-25T06:58:41;13.75;;;10.40;;
26702;SDS011;14316;51.074;3.704;2022-08-25T07:03:52;11.20;;;9.52;;
26702;SDS011;14316;51.074;3.704;2022-08-25T07:06:21;14.85;;;9.05;;
26702;SDS011;14316;51.074;3.704;2022-08-25T07:08:48;16.20;;;11.25;;
26702;SDS011;14316;51.074;3.704;2022-08-25T07:11:14;21.33;;;12.77;;
26702;SDS011;14316;51.074;3.704;2022-08-25T07:13:40;18.52;;;13.15;;
26702;SDS011;14316;51.074;3.704;2022-08-25T07:16:06;19.77;;;11.88;;
26702;SDS011;14316;51.074;3.704;2022-08-25T07:18:33;17.95;;;10.70;;
26702;SDS011;14316;51.074;3.704;2022-08-25T07:20:59;17.55;;;11.93;;
26702;SDS011;14316;51.074;3.704;2022-08-25T07:23:25;17.13;;;11.48;;
26702;SDS011;14316;51.074;3.704;2022-08-25T07:25:52;15.88;;;11.35;;
26702;SDS011;14316;51.074;3.704;2022-08-25T07:28:19;39.67;;;13.93;;
26702;SDS011;14316;51.074;3.704;2022-08-25T07:30:46;12.77;;;8.15;;
26702;SDS011;14316;51.074;3.704;2022-08-25T07:33:14;16.58;;;8.35;;
26702;SDS011;14316;51.074;3.704;2022-08-25T07:35:39;20.77;;;7.75;;
26702;SDS011;14316;51.074;3.704;2022-08-25T07:38:05;9.93;;;6.50;;
26702;SDS011;14316;51.074;3.704;2022-08-25T07:40:33;7.63;;;5.50;;
26702;SDS011;14316;51.074;3.704;2022-08-25T07:43:03;8.50;;;5.35;;
26702;SDS011;14316;51.074;3.704;2022-08-25T07:45:32;10.93;;;5.88;;
26702;SDS011;14316;51.074;3.704;2022-08-25T07:48:01;9.52;;;5.70;;
26702;SDS011;14316;51.074;3.704;2022-08-25T07:50:29;7.15;;;5.03;;
26702;SDS011;14316;51.074;3.704;2022-08-25T07:52:55;15.32;;;5.43;;
26702;SDS011;14316;51.074;3.704;2022-08-25T07:55:23;8.07;;;4.75;;
26702;SDS011;14316;51.074;3.704;2022-08-25T07:57:50;8.90;;;4.97;;
26702;SDS011;14316;51.074;3.704;2022-08-25T08:00:17;6.07;;;5.20;;
26702;SDS011;14316;51.074;3.704;2022-08-25T08:02:46;10.27;;;4.70;;
26702;SDS011;14316;51.074;3.704;2022-08-25T08:05:12;7.35;;;4.85;;
26702;SDS011;14316;51.074;3.704;2022-08-25T08:07:39;6.90;;;4.45;;
26702;SDS011;14316;51.074;3.704;2022-08-25T08:10:06;10.02;;;5.00;;
26702;SDS011;14316;51.074;3.704;2022-08-25T08:12:33;8.52;;;4.40;;
26702;SDS011;14316;51.074;3.704;2022-08-25T08:15:00;7.35;;;4.10;;
26702;SDS011;14316;51.074;3.704;2022-08-25T08:17:26;5.88;;;3.78;;
26702;SDS011;14316;51.074;3.704;2022-08-25T08:19:52;11.70;;;3.88;;
26702;SDS011;14316;51.074;3.704;2022-08-25T08:22:18;11.25;;;4.05;;
26702;SDS011;14316;51.074;3.704;2022-08-25T08:24:44;5.80;;;4.13;;
26702;SDS011;14316;51.074;3.704;2022-08-25T08:27:11;4.28;;;3.90;;
26702;SDS011;14316;51.074;3.704;2022-08-25T08:29:38;8.55;;;3.78;;
26702;SDS011;14316;51.074;3.704;2022-08-25T08:32:06;7.07;;;3.47;;
26702;SDS011;14316;51.074;3.704;2022-08-25T08:34:34;5.85;;;3.60;;
26702;SDS011;14316;51.074;3.704;2022-08-25T08:37:00;4.57;;;3.40;;
26702;SDS011;14316;51.074;3.704;2022-08-25T08:39:27;5.20;;;3.47;;
26702;SDS011;14316;51.074;3.704;2022-08-25T08:47:55;5.75;;;3.45;;
26702;SDS011;14316;51.074;3.704;2022-08-25T08:53:13;5.68;;;3.45;;
26702;SDS011;14316;51.074;3.704;2022-08-25T08:56:03;4.50;;;3.20;;
26702;SDS011;14316;51.074;3.704;2022-08-25T08:58:41;5.95;;;3.83;;
26702;SDS011;14316;51.074;3.704;2022-08-25T09:01:11;5.45;;;3.50;;
26702;SDS011;14316;51.074;3.704;2022-08-25T09:06:12;7.18;;;3.20;;
26702;SDS011;14316;51.074;3.704;2022-08-25T09:08:46;8.05;;;3.30;;
26702;SDS011;14316;51.074;3.704;2022-08-25T09:16:51;6.07;;;3.00;;
26702;SDS011;14316;51.074;3.704;2022-08-25T09:31:16;3.45;;;2.92;;
26702;SDS011;14316;51.074;3.704;2022-08-25T09:33:45;5.40;;;3.10;;
26702;SDS011;14316;51.074;3.704;2022-08-25T09:36:11;5.10;;;2.90;;
26702;SDS011;14316;51.074;3.704;2022-08-25T09:38:37;4.53;;;2.65;;
26702;SDS011;14316;51.074;3.704;2022-08-25T09:41:04;7.07;;;3.10;;
26702;SDS011;14316;51.074;3.704;2022-08-25T09:46:13;5.88;;;2.75;;
26702;SDS011;14316;51.074;3.704;2022-08-25T09:48:55;5.22;;;2.78;;
26702;SDS011;14316;51.074;3.704;2022-08-25T09:51:33;6.63;;;3.50;;
26702;SDS011;14316;51.074;3.704;2022-08-25T09:54:18;3.80;;;3.22;;
26702;SDS011;14316;51.074;3.704;2022-08-25T09:56:50;5.47;;;2.70;;
26702;SDS011;14316;51.074;3.704;2022-08-25T10:04:29;2.88;;;2.67;;
26702;SDS011;14316;51.074;3.704;2022-08-25T10:06:58;3.95;;;2.97;;
26702;SDS011;14316;51.074;3.704;2022-08-25T10:09:34;3.28;;;2.88;;
26702;SDS011;14316;51.074;3.704;2022-08-25T10:12:18;9.85;;;3.40;;
26702;SDS011;14316;51.074;3.704;2022-08-25T10:14:52;5.20;;;3.28;;
26702;SDS011;14316;51.074;3.704;2022-08-25T10:17:31;3.58;;;2.58;;
26702;SDS011;14316;51.074;3.704;2022-08-25T10:22:35;4.50;;;2.40;;
26702;SDS011;14316;51.074;3.704;2022-08-25T10:25:04;3.72;;;2.25;;
26702;SDS011;14316;51.074;3.704;2022-08-25T10:30:27;3.70;;;2.20;;
26702;SDS011;14316;51.074;3.704;2022-08-25T10:36:07;2.70;;;2.50;;
26702;SDS011;14316;51.074;3.704;2022-08-25T10:38:56;6.80;;;2.55;;
26702;SDS011;14316;51.074;3.704;2022-08-25T10:44:18;4.03;;;2.70;;
26702;SDS011;14316;51.074;3.704;2022-08-25T10:50:22;3.05;;;2.72;;
26702;SDS011;14316;51.074;3.704;2022-08-25T10:53:00;6.82;;;2.28;;
26702;SDS011;14316;51.074;3.704;2022-08-25T10:55:37;3.00;;;2.70;;
26702;SDS011;14316;51.074;3.704;2022-08-25T11:04:06;4.03;;;3.10;;
26702;SDS011;14316;51.074;3.704;2022-08-25T11:06:43;6.70;;;3.67;;
26702;SDS011;14316;51.074;3.704;2022-08-25T11:09:19;8.48;;;4.03;;
26702;SDS011;14316;51.074;3.704;2022-08-25T11:14:34;6.72;;;3.60;;
26702;SDS011;14316;51.074;3.704;2022-08-25T11:17:15;8.02;;;3.78;;
26702;SDS011;14316;51.074;3.704;2022-08-25T11:19:48;4.93;;;3.40;;
26702;SDS011;14316;51.074;3.704;2022-08-25T11:22:33;10.52;;;3.92;;
26702;SDS011;14316;51.074;3.704;2022-08-25T11:25:17;6.10;;;3.72;;
26702;SDS011;14316;51.074;3.704;2022-08-25T11:30:37;8.55;;;3.88;;
26702;SDS011;14316;51.074;3.704;2022-08-25T11:33:03;8.70;;;3.95;;
26702;SDS011;14316;51.074;3.704;2022-08-25T11:35:34;4.70;;;3.47;;
26702;SDS011;14316;51.074;3.704;2022-08-25T11:38:09;5.00;;;4.00;;
26702;SDS011;14316;51.074;3.704;2022-08-25T11:51:40;8.60;;;4.05;;
26702;SDS011;14316;51.074;3.704;2022-08-25T11:56:58;6.82;;;4.68;;
26702;SDS011;14316;51.074;3.704;2022-08-25T12:04:58;6.53;;;4.88;;
26702;SDS011;14316;51.074;3.704;2022-08-25T12:07:26;9.50;;;5.60;;
26702;SDS011;14316;51.074;3.704;2022-08-25T12:13:46;11.40;;;6.88;;
26702;SDS011;14316;51.074;3.704;2022-08-25T12:30:03;8.73;;;7.38;;
26702;SDS011;14316;51.074;3.704;2022-08-25T12:32:58;15.90;;;8.40;;
26702;SDS011;14316;51.074;3.704;2022-08-25T12:41:12;12.52;;;7.85;;
26702;SDS011;14316;51.074;3.704;2022-08-25T12:43:51;12.48;;;8.70;;
26702;SDS011;14316;51.074;3.704;2022-08-25T12:46:34;12.23;;;10.13;;
26702;SDS011;14316;51.074;3.704;2022-08-25T12:49:08;9.85;;;8.88;;
26702;SDS011;14316;51.074;3.704;2022-08-25T12:51:45;9.82;;;7.80;;
26702;SDS011;14316;51.074;3.704;2022-08-25T12:57:02;10.60;;;8.48;;
26702;SDS011;14316;51.074;3.704;2022-08-25T12:59:43;11.77;;;7.45;;
26702;SDS011;14316;51.074;3.704;2022-08-25T13:16:08;10.45;;;8.40;;
26702;SDS011;14316;51.074;3.704;2022-08-25T13:18:45;10.88;;;9.38;;
26702;SDS011;14316;51.074;3.704;2022-08-25T13:23:45;13.38;;;10.68;;
26702;SDS011;14316;51.074;3.704;2022-08-25T13:26:24;11.05;;;10.00;;
26702;SDS011;14316;51.074;3.704;2022-08-25T13:28:55;13.27;;;11.93;;
26702;SDS011;14316;51.074;3.704;2022-08-25T13:31:23;13.77;;;10.00;;
26702;SDS011;14316;51.074;3.704;2022-08-25T13:33:53;10.55;;;9.60;;
26702;SDS011;14316;51.074;3.704;2022-08-25T13:36:19;9.48;;;8.57;;
26702;SDS011;14316;51.074;3.704;2022-08-25T13:42:00;11.75;;;10.65;;
26702;SDS011;14316;51.074;3.704;2022-08-25T13:44:30;13.95;;;12.63;;
26702;SDS011;14316;51.074;3.704;2022-08-25T13:49:42;14.73;;;13.30;;
26702;SDS011;14316;51.074;3.704;2022-08-25T13:52:28;13.65;;;11.95;;
26702;SDS011;14316;51.074;3.704;2022-08-25T13:54:57;16.75;;;15.00;;
26702;SDS011;14316;51.074;3.704;2022-08-25T13:57:25;22.02;;;19.55;;
26702;SDS011;14316;51.074;3.704;2022-08-25T13:59:54;23.08;;;20.98;;
26702;SDS011;14316;51.074;3.704;2022-08-25T14:05:31;22.20;;;20.10;;
26702;SDS011;14316;51.074;3.704;2022-08-25T14:07:57;22.90;;;20.35;;
26702;SDS011;14316;51.074;3.704;2022-08-25T14:10:38;24.70;;;21.50;;
26702;SDS011;14316;51.074;3.704;2022-08-25T14:13:13;23.92;;;21.73;;
26702;SDS011;14316;51.074;3.704;2022-08-25T14:15:52;21.92;;;19.88;;
26702;SDS011;14316;51.074;3.704;2022-08-25T14:20:53;22.10;;;20.00;;
26702;SDS011;14316;51.074;3.704;2022-08-25T14:23:25;18.52;;;16.73;;
26702;SDS011;14316;51.074;3.704;2022-08-25T14:25:55;18.08;;;15.52;;
26702;SDS011;14316;51.074;3.704;2022-08-25T14:28:28;17.95;;;16.15;;
26702;SDS011;14316;51.074;3.704;2022-08-25T14:31:00;17.35;;;15.02;;
26702;SDS011;14316;51.074;3.704;2022-08-25T14:33:35;17.83;;;14.50;;
26702;SDS011;14316;51.074;3.704;2022-08-25T14:36:09;15.52;;;13.10;;
26702;SDS011;14316;51.074;3.704;2022-08-25T14:38:36;15.95;;;14.30;;
26702;SDS011;14316;51.074;3.704;2022-08-25T14:41:03;15.65;;;12.60;;
26702;SDS011;14316;51.074;3.704;2022-08-25T14:43:30;16.85;;;11.77;;
26702;SDS011;14316;51.074;3.704;2022-08-25T14:45:57;16.67;;;11.30;;
26702;SDS011;14316;51.074;3.704;2022-08-25T14:48:26;14.35;;;10.73;;
26702;SDS011;14316;51.074;3.704;2022-08-25T14:50:55;14.80;;;9.65;;
26702;SDS011;14316;51.074;3.704;2022-08-25T14:53:22;16.92;;;10.45;;
26702;SDS011;14316;51.074;3.704;2022-08-25T14:55:49;13.57;;;9.55;;
26702;SDS011;14316;51.074;3.704;2022-08-25T14:58:18;14.18;;;9.55;;
26702;SDS011;14316;51.074;3.704;2022-08-25T15:00:45;15.38;;;8.10;;
26702;SDS011;14316;51.074;3.704;2022-08-25T15:03:16;14.43;;;8.45;;
26702;SDS011;14316;51.074;3.704;2022-08-25T15:05:48;21.60;;;9.20;;
26702;SDS011;14316;51.074;3.704;2022-08-25T15:08:14;16.23;;;8.98;;
26702;SDS011;14316;51.074;3.704;2022-08-25T15:10:58;15.30;;;7.88;;
26702;SDS011;14316;51.074;3.704;2022-08-25T15:13:25;14.68;;;6.95;;
26702;SDS011;14316;51.074;3.704;2022-08-25T15:15:51;15.68;;;6.93;;
26702;SDS011;14316;51.074;3.704;2022-08-25T15:18:18;14.13;;;7.65;;
26702;SDS011;14316;51.074;3.704;2022-08-25T15:20:44;16.85;;;7.78;;
26702;SDS011;14316;51.074;3.704;2022-08-25T15:23:10;13.02;;;7.25;;
26702;SDS011;14316;51.074;3.704;2022-08-25T15:25:36;13.40;;;7.15;;
26702;SDS011;14316;51.074;3.704;2022-08-25T15:28:04;12.10;;;6.60;;
26702;SDS011;14316;51.074;3.704;2022-08-25T15:30:33;15.77;;;7.20;;
26702;SDS011;14316;51.074;3.704;2022-08-25T15:33:00;12.88;;;6.47;;
26702;SDS011;14316;51.074;3.704;2022-08-25T15:35:26;13.70;;;7.47;;
26702;SDS011;14316;51.074;3.704;2022-08-25T15:37:52;14.15;;;8.05;;
26702;SDS011;14316;51.074;3.704;2022-08-25T15:40:18;14.32;;;8.65;;
26702;SDS011;14316;51.074;3.704;2022-08-25T15:42:43;12.10;;;8.60;;
26702;SDS011;14316;51.074;3.704;2022-08-25T15:45:10;14.32;;;9.45;;
26702;SDS011;14316;51.074;3.704;2022-08-25T15:47:36;15.07;;;9.32;;
26702;SDS011;14316;51.074;3.704;2022-08-25T15:50:08;18.20;;;8.95;;
26702;SDS011;14316;51.074;3.704;2022-08-25T15:52:38;16.88;;;9.30;;
26702;SDS011;14316;51.074;3.704;2022-08-25T15:55:04;15.23;;;9.48;;
26702;SDS011;14316;51.074;3.704;2022-08-25T15:57:31;15.60;;;9.68;;
26702;SDS011;14316;51.074;3.704;2022-08-25T15:59:57;16.95;;;9.15;;
26702;SDS011;14316;51.074;3.704;2022-08-25T16:02:23;17.20;;;10.50;;
26702;SDS011;14316;51.074;3.704;2022-08-25T16:04:49;14.43;;;10.10;;
26702;SDS011;14316;51.074;3.704;2022-08-25T16:07:16;18.45;;;11.60;;
26702;SDS011;14316;51.074;3.704;2022-08-25T16:09:43;16.48;;;10.15;;
26702;SDS011;14316;51.074;3.704;2022-08-25T16:12:09;18.05;;;8.68;;
26702;SDS011;14316;51.074;3.704;2022-08-25T16:14:35;14.90;;;8.82;;
26702;SDS011;14316;51.074;3.704;2022-08-25T16:17:01;16.50;;;9.50;;
26702;SDS011;14316;51.074;3.704;2022-08-25T16:19:36;15.25;;;8.93;;
26702;SDS011;14316;51.074;3.704;2022-08-25T16:22:03;18.27;;;9.13;;
26702;SDS011;14316;51.074;3.704;2022-08-25T16:24:28;14.88;;;8.02;;
26702;SDS011;14316;51.074;3.704;2022-08-25T16:26:55;16.27;;;7.88;;
26702;SDS011;14316;51.074;3.704;2022-08-25T16:29:28;13.55;;;7.63;;
26702;SDS011;14316;51.074;3.704;2022-08-25T16:31:55;15.02;;;7.10;;
26702;SDS011;14316;51.074;3.704;2022-08-25T16:34:22;11.90;;;6.68;;
26702;SDS011;14316;51.074;3.704;2022-08-25T16:36:49;13.57;;;6.97;;
26702;SDS011;14316;51.074;3.704;2022-08-25T16:39:21;15.55;;;6.38;;
26702;SDS011;14316;51.074;3.704;2022-08-25T16:41:47;14.90;;;6.70;;
26702;SDS011;14316;51.074;3.704;2022-08-25T16:44:13;13.60;;;6.50;;
26702;SDS011;14316;51.074;3.704;2022-08-25T16:46:39;14.00;;;6.10;;
26702;SDS011;14316;51.074;3.704;2022-08-25T16:49:10;10.27;;;5.65;;
26702;SDS011;14316;51.074;3.704;2022-08-25T16:51:38;12.63;;;5.23;;
26702;SDS011;14316;51.074;3.704;2022-08-25T16:54:04;11.07;;;5.72;;
26702;SDS011;14316;51.074;3.704;2022-08-25T16:56:50;12.95;;;5.30;;
26702;SDS011;14316;51.074;3.704;2022-08-25T16:59:15;11.23;;;5.47;;
26702;SDS011;14316;51.074;3.704;2022-08-25T17:01:41;18.42;;;5.55;;
26702;SDS011;14316;51.074;3.704;2022-08-25T17:04:08;16.48;;;5.60;;
26702;SDS011;14316;51.074;3.704;2022-08-25T17:06:35;10.55;;;4.68;;